Aérodrome :
LOGIN :

S'inscrire | Disclaimer

   EN    FR    IT 

 










Légende :    VFR   VFR Marginal   IFR   IFR Intensif   IFR Très Intensif
Visi : 
Plafond : 
>= 8 km
>= 3000ft
5 à 8 km
1000 à 3000 ft
1500m à 5 km
500 à 1000 ft
800 à 1500m
200 à 500 ft
< 800m
< 200 ft
Symboles :   Orages  Brouillard  Fortes neiges  Fortes précipitations  Vent > 20 kt
SIGMETs :   Divers  Orages  Givrage  Turbulence  Onde Orograph.  Cendres Volcan.






- Altitude de l'aérodrome : 56 ft
- Code IATA : BZR


LFMU - Beziers / Vias

DERNIER METAR :
  • 130900Z AUTO 27003KT 220V310 CAVOK 09/05 Q1007 NOSIG

METARs EXPIRÉS :
  • 130830Z AUTO 27006KT CAVOK 08/05 Q1006 NOSIG
  • 130800Z AUTO 30005KT 270V340 CAVOK 08/05 Q1006 NOSIG
  • 130730Z AUTO 32005KT CAVOK 08/06 Q1006 NOSIG
  • 130700Z AUTO 31008KT CAVOK 07/06 Q1006 NOSIG
  • 130630Z AUTO 32006KT CAVOK 06/05 Q1005 NOSIG

TAF TAF LFMU
Valide du 13 à 09h jusqu'au 14 à 09h UTC


130800Z 1309/1409 31010KT CAVOK
TEMPO 1319/1405 VRB05KT
BECMG 1401/1404 BKN030
TEMPO 1406/1409 01010KT SHRA BKN020 BKN030TCU
ATIS : +33 4 67 90 88 88



MET'MAP, la Météo Aéronautique d'un coup d'oeil ! - Copyright ORBIFLY Décembre 2007 - Disclaimer

ORBIFLY MET'MAP TEAM :

Programmation & Développement : Alexandra Zaïnal
Conception & Développement : Baudouin d'Aumeries
Co-Programmation & Développement : Marc-Olivier Méhu
Soutien technique & logistique : Manuel Goepfert

Contact : metmap@orbifly.com




SOURCES & CREDITS :

   NOAA